createdAt,value
2018-11-25T00:01:41.450Z,50.13
2018-11-25T00:04:09.179Z,50.73
2018-11-25T00:06:36.917Z,49.40
2018-11-25T00:09:07.082Z,52.37
2018-11-25T00:11:34.810Z,51.60
2018-11-25T00:14:02.751Z,46.23
2018-11-25T00:16:30.565Z,51.67
2018-11-25T00:18:58.314Z,61.50
2018-11-25T00:21:26.038Z,55.60
2018-11-25T00:23:53.735Z,55.60
2018-11-25T00:26:21.497Z,50.70
2018-11-25T00:28:49.277Z,55.67
2018-11-25T00:31:17.053Z,53.23
2018-11-25T00:33:44.761Z,55.47
2018-11-25T00:36:12.535Z,58.10
2018-11-25T00:38:40.262Z,60.43
2018-11-25T00:41:07.985Z,74.13
2018-11-25T00:43:35.719Z,74.37
2018-11-25T00:46:03.522Z,80.97
2018-11-25T00:48:31.249Z,76.67
2018-11-25T00:50:58.966Z,80.00
2018-11-25T00:53:26.708Z,70.80
2018-11-25T00:55:54.447Z,91.70
2018-11-25T00:58:22.181Z,86.70
2018-11-25T01:00:49.968Z,86.43
2018-11-25T01:03:17.695Z,88.27
2018-11-25T01:05:45.442Z,99.80
2018-11-25T01:08:13.188Z,89.20
2018-11-25T01:10:41.013Z,96.17
2018-11-25T01:13:08.720Z,91.33
2018-11-25T01:15:36.406Z,97.80
2018-11-25T01:18:04.165Z,95.83
2018-11-25T01:20:31.990Z,94.97
2018-11-25T01:22:59.701Z,110.90
2018-11-25T01:25:27.474Z,109.53
2018-11-25T01:27:55.299Z,103.90
2018-11-25T01:30:23.102Z,99.63
2018-11-25T01:32:50.833Z,107.07
2018-11-25T01:35:18.585Z,103.60
2018-11-25T01:37:46.308Z,101.03
2018-11-25T01:40:15.067Z,97.57
2018-11-25T01:42:42.929Z,91.23
2018-11-25T01:45:14.525Z,110.97
2018-11-25T01:47:42.302Z,91.97
2018-11-25T01:50:12.293Z,98.83
2018-11-25T01:52:40.038Z,99.43
2018-11-25T01:55:09.430Z,91.50
2018-11-25T01:57:37.182Z,97.67
2018-11-25T02:00:11.598Z,93.30
2018-11-25T02:02:39.367Z,88.13
2018-11-25T02:05:07.200Z,83.60
2018-11-25T02:07:35.727Z,87.13
2018-11-25T02:10:04.905Z,86.10
2018-11-25T02:12:32.675Z,87.00
2018-11-25T02:15:00.466Z,80.13
2018-11-25T02:17:28.275Z,80.03
2018-11-25T02:19:56.022Z,80.07
2018-11-25T02:22:23.714Z,79.77
2018-11-25T02:24:51.444Z,82.00
2018-11-25T02:27:19.188Z,78.40
2018-11-25T02:29:46.975Z,82.10
2018-11-25T02:32:14.770Z,82.47
2018-11-25T02:34:42.505Z,83.93
2018-11-25T02:37:10.240Z,69.50
2018-11-25T02:39:37.961Z,83.80
2018-11-25T02:42:05.791Z,95.70
2018-11-25T02:44:34.187Z,90.10
2018-11-25T02:47:01.932Z,88.63
2018-11-25T02:49:29.759Z,89.23
2018-11-25T02:51:57.513Z,84.70
2018-11-25T02:54:25.315Z,79.47
2018-11-25T02:56:53.059Z,79.03
2018-11-25T02:59:20.829Z,75.20
2018-11-25T03:01:48.517Z,71.37
2018-11-25T03:04:16.258Z,82.23
2018-11-25T03:06:43.974Z,91.17
2018-11-25T03:09:11.737Z,81.57
2018-11-25T03:11:39.480Z,73.40
2018-11-25T03:14:07.281Z,81.67
2018-11-25T03:16:35.027Z,82.10
2018-11-25T03:19:02.774Z,84.10
2018-11-25T03:21:30.490Z,81.23
2018-11-25T03:23:58.319Z,80.10
2018-11-25T03:26:26.037Z,81.17
2018-11-25T03:28:53.721Z,84.60
2018-11-25T03:31:21.446Z,80.23
2018-11-25T03:33:49.166Z,84.73
2018-11-25T03:36:16.915Z,86.63
2018-11-25T03:38:44.634Z,81.20
2018-11-25T03:41:12.345Z,81.70
2018-11-25T03:43:40.053Z,84.27
2018-11-25T03:46:08.618Z,86.60
2018-11-25T03:48:36.782Z,82.93
2018-11-25T03:51:04.760Z,84.30
2018-11-25T03:53:32.591Z,72.30
2018-11-25T03:56:00.381Z,85.27
2018-11-25T03:58:28.150Z,83.27
2018-11-25T04:00:55.922Z,82.43
2018-11-25T04:03:23.632Z,86.00
2018-11-25T04:05:51.409Z,74.03
2018-11-25T04:08:19.519Z,77.67
2018-11-25T04:10:47.205Z,77.90
2018-11-25T04:13:14.910Z,78.60
2018-11-25T04:15:42.619Z,78.00
2018-11-25T04:18:10.329Z,79.40
2018-11-25T04:20:38.067Z,79.80
2018-11-25T04:23:05.888Z,78.33
2018-11-25T04:25:33.647Z,82.93
2018-11-25T04:28:01.342Z,74.77
2018-11-25T04:30:29.085Z,68.27
2018-11-25T04:32:56.828Z,76.97
2018-11-25T04:35:24.578Z,79.23
2018-11-25T04:37:52.306Z,77.47
2018-11-25T04:40:20.058Z,73.50
2018-11-25T04:42:47.812Z,89.87
2018-11-25T04:45:16.442Z,76.30
2018-11-25T04:47:44.782Z,72.90
2018-11-25T04:50:17.418Z,85.70
2018-11-25T04:52:45.228Z,77.53
2018-11-25T04:55:13.185Z,78.47
2018-11-25T04:57:40.995Z,74.97
2018-11-25T05:00:11.028Z,76.97
2018-11-25T05:02:39.188Z,82.80
2018-11-25T05:05:09.166Z,72.43
2018-11-25T05:07:36.928Z,71.73
2018-11-25T05:10:06.521Z,78.60
2018-11-25T05:12:34.335Z,74.50
2018-11-25T05:15:02.099Z,73.50
2018-11-25T05:17:30.246Z,75.67
2018-11-25T05:19:57.567Z,71.03
2018-11-25T05:22:25.311Z,71.73
2018-11-25T05:24:53.034Z,70.57
2018-11-25T05:27:20.783Z,66.30
2018-11-25T05:29:48.566Z,72.27
2018-11-25T05:32:16.323Z,71.93
2018-11-25T05:34:44.036Z,74.87
2018-11-25T05:37:11.807Z,75.17
2018-11-25T05:39:39.531Z,76.80
2018-11-25T05:42:07.274Z,73.17
2018-11-25T05:44:35.003Z,67.80
2018-11-25T05:47:02.824Z,68.57
2018-11-25T05:49:36.385Z,73.50
2018-11-25T05:51:58.397Z,72.80
2018-11-25T05:54:26.115Z,73.70
2018-11-25T05:56:54.019Z,70.37
2018-11-25T05:59:21.783Z,71.77
2018-11-25T06:01:49.539Z,71.63
2018-11-25T06:04:17.349Z,77.13
2018-11-25T06:06:45.135Z,72.43
2018-11-25T06:09:12.854Z,77.90
2018-11-25T06:11:40.621Z,66.87
2018-11-25T06:14:08.366Z,64.63
2018-11-25T06:16:36.092Z,64.03
2018-11-25T06:19:04.028Z,66.43
2018-11-25T06:21:31.749Z,70.50
2018-11-25T06:23:59.544Z,66.50
2018-11-25T06:26:27.262Z,70.40
2018-11-25T06:28:55.005Z,64.57
2018-11-25T06:31:22.803Z,67.57
2018-11-25T06:33:50.680Z,70.63
2018-11-25T06:36:18.423Z,64.83
2018-11-25T06:38:46.174Z,67.70
2018-11-25T06:41:13.879Z,66.13
2018-11-25T06:43:41.678Z,68.77
2018-11-25T06:46:11.694Z,72.93
2018-11-25T06:48:39.421Z,68.40
2018-11-25T06:51:07.155Z,66.17
2018-11-25T06:53:34.884Z,65.53
2018-11-25T06:56:02.663Z,65.83
2018-11-25T06:58:30.342Z,71.13
2018-11-25T07:00:58.176Z,74.07
2018-11-25T07:03:25.928Z,64.37
2018-11-25T07:05:53.657Z,68.77
2018-11-25T07:08:21.421Z,67.77
2018-11-25T07:10:49.167Z,64.73
2018-11-25T07:13:16.879Z,66.20
2018-11-25T07:15:44.638Z,64.83
2018-11-25T07:18:12.399Z,64.00
2018-11-25T07:20:40.134Z,67.87
2018-11-25T07:23:07.853Z,62.50
2018-11-25T07:25:35.650Z,58.53
2018-11-25T07:28:18.002Z,61.00
2018-11-25T07:30:31.234Z,64.43
2018-11-25T07:32:58.994Z,56.33
2018-11-25T07:35:27.500Z,62.37
2018-11-25T07:37:55.294Z,57.97
2018-11-25T07:40:23.828Z,55.90
2018-11-25T07:42:51.606Z,60.87
2018-11-25T07:45:30.250Z,62.13
2018-11-25T07:47:51.344Z,55.00
2018-11-25T07:50:19.148Z,61.20
2018-11-25T07:52:47.597Z,55.97
2018-11-25T07:55:18.402Z,56.10
2018-11-25T07:57:46.523Z,57.33
2018-11-25T08:00:16.185Z,61.63
2018-11-25T08:02:43.985Z,54.03
2018-11-25T08:05:14.675Z,57.10
2018-11-25T08:07:42.467Z,55.03
2018-11-25T08:10:15.068Z,62.53
2018-11-25T08:12:42.981Z,54.47
2018-11-25T08:15:20.606Z,59.43
2018-11-25T08:17:48.418Z,60.27
2018-11-25T08:20:17.150Z,57.83
2018-11-25T08:22:44.954Z,53.83
2018-11-25T08:25:14.726Z,55.03
2018-11-25T08:27:42.615Z,57.57
2018-11-25T08:30:17.381Z,57.30
2018-11-25T08:32:45.226Z,59.80
2018-11-25T08:35:13.858Z,54.23
2018-11-25T08:37:41.739Z,56.13
2018-11-25T08:40:13.390Z,54.00
2018-11-25T08:42:41.252Z,57.27
2018-11-25T08:45:10.294Z,52.77
2018-11-25T08:47:38.110Z,55.00
2018-11-25T08:50:13.020Z,56.13
2018-11-25T08:52:41.140Z,65.93
2018-11-25T08:55:15.012Z,56.40
2018-11-25T08:57:42.822Z,61.10
2018-11-25T09:00:18.453Z,63.63
2018-11-25T09:02:46.392Z,65.43
2018-11-25T09:05:14.893Z,66.77
2018-11-25T09:07:42.683Z,64.83
2018-11-25T09:10:12.450Z,66.87
2018-11-25T09:12:40.254Z,64.70
2018-11-25T09:15:09.978Z,65.90
2018-11-25T09:17:37.718Z,62.57
2018-11-25T09:20:07.823Z,64.93
2018-11-25T09:22:35.575Z,62.70
2018-11-25T09:25:03.471Z,63.77
2018-11-25T09:27:31.233Z,67.50
2018-11-25T09:29:58.947Z,62.23
2018-11-25T09:32:26.716Z,64.43
2018-11-25T09:34:54.471Z,64.73
2018-11-25T09:37:22.207Z,59.70
2018-11-25T09:39:49.942Z,66.93
2018-11-25T09:42:17.721Z,60.90
2018-11-25T09:44:45.469Z,58.83
2018-11-25T09:47:13.188Z,59.03
2018-11-25T09:49:40.950Z,58.97
2018-11-25T09:52:08.708Z,55.73
2018-11-25T09:54:36.431Z,57.47
2018-11-25T09:57:04.251Z,54.87
2018-11-25T09:59:32.386Z,58.57
2018-11-25T10:02:00.104Z,58.47
2018-11-25T10:04:27.825Z,55.13
2018-11-25T10:06:55.603Z,59.33
2018-11-25T10:09:23.369Z,58.40
2018-11-25T10:11:51.072Z,56.57
2018-11-25T10:14:18.853Z,56.80
2018-11-25T10:16:46.599Z,54.97
2018-11-25T10:19:14.341Z,57.60
2018-11-25T10:21:42.085Z,56.67
2018-11-25T10:24:09.877Z,54.17
2018-11-25T10:26:37.609Z,57.40
2018-11-25T10:29:05.373Z,57.73
2018-11-25T10:31:33.142Z,53.60
2018-11-25T10:34:00.875Z,51.77
2018-11-25T10:36:28.656Z,52.77
2018-11-25T10:38:56.375Z,59.87
2018-11-25T10:41:24.177Z,55.73
2018-11-25T10:43:51.908Z,57.77
2018-11-25T10:46:19.655Z,53.97
2018-11-25T10:48:47.522Z,58.43
2018-11-25T10:51:15.245Z,59.33
2018-11-25T10:53:43.082Z,58.67
2018-11-25T10:56:10.877Z,60.80
2018-11-25T10:58:38.602Z,55.70
2018-11-25T11:01:11.888Z,63.67
2018-11-25T11:03:45.157Z,60.10
2018-11-25T11:06:18.799Z,64.57
2018-11-25T11:08:46.576Z,71.77
2018-11-25T11:11:14.341Z,63.00
2018-11-25T11:13:42.063Z,66.80
2018-11-25T11:16:09.940Z,62.03
2018-11-25T11:18:37.719Z,67.47
2018-11-25T11:21:05.842Z,60.67
2018-11-25T11:23:33.655Z,68.23
2018-11-25T11:26:06.674Z,64.33
2018-11-25T11:28:29.313Z,62.20
2018-11-25T11:30:57.139Z,61.23
2018-11-25T11:33:24.967Z,67.33
2018-11-25T11:35:52.764Z,61.83
2018-11-25T11:38:20.608Z,59.17
2018-11-25T11:40:48.451Z,59.53
2018-11-25T11:43:16.234Z,63.53
2018-11-25T11:45:43.974Z,60.33
2018-11-25T11:48:11.694Z,63.53
2018-11-25T11:50:39.450Z,61.73
2018-11-25T11:53:07.243Z,60.30
2018-11-25T11:55:35.039Z,59.63
2018-11-25T11:58:02.839Z,64.47
2018-11-25T12:00:31.268Z,59.70
2018-11-25T12:02:59.549Z,63.60
2018-11-25T12:05:28.361Z,56.00
2018-11-25T12:07:56.105Z,53.53
2018-11-25T12:10:24.825Z,52.50
2018-11-25T12:12:52.738Z,50.03
2018-11-25T12:15:30.439Z,50.47
2018-11-25T12:17:51.905Z,54.60
2018-11-25T12:20:21.427Z,54.33
2018-11-25T12:22:48.728Z,52.73
2018-11-25T12:25:17.274Z,45.97
2018-11-25T12:27:45.283Z,51.27
2018-11-25T12:30:14.085Z,53.33
2018-11-25T12:32:42.479Z,48.00
2018-11-25T12:35:11.366Z,51.80
2018-11-25T12:37:39.149Z,49.20
2018-11-25T12:40:10.278Z,46.27
2018-11-25T12:42:38.067Z,48.77
2018-11-25T12:45:08.600Z,48.33
2018-11-25T12:47:36.388Z,49.07
2018-11-25T12:50:04.331Z,44.80
2018-11-25T12:52:32.202Z,50.43
2018-11-25T12:55:00.030Z,45.07
2018-11-25T12:57:27.966Z,51.00
2018-11-25T12:59:55.794Z,48.47
2018-11-25T13:02:23.569Z,50.67
2018-11-25T13:04:51.403Z,53.93
2018-11-25T13:07:19.271Z,51.27
2018-11-25T13:09:47.058Z,51.73
2018-11-25T13:12:14.860Z,56.57
2018-11-25T13:14:42.637Z,50.50
2018-11-25T13:17:10.519Z,55.87
2018-11-25T13:19:38.425Z,52.40
2018-11-25T13:22:06.053Z,52.10
2018-11-25T13:24:34.530Z,57.83
2018-11-25T13:27:02.302Z,53.87
2018-11-25T13:29:29.979Z,54.30
2018-11-25T13:31:57.698Z,50.23
2018-11-25T13:34:25.410Z,56.00
2018-11-25T13:36:53.149Z,53.10
2018-11-25T13:39:20.915Z,54.90
2018-11-25T13:41:48.665Z,48.00
2018-11-25T13:44:16.418Z,46.90
2018-11-25T13:46:44.196Z,51.47
2018-11-25T13:49:11.908Z,46.30
2018-11-25T13:51:39.718Z,50.03
2018-11-25T13:54:07.491Z,51.93
2018-11-25T13:56:35.276Z,49.57
2018-11-25T13:59:03.091Z,52.20
2018-11-25T14:01:31.706Z,49.90
2018-11-25T14:03:59.442Z,47.90
2018-11-25T14:06:27.170Z,49.23
2018-11-25T14:08:55.097Z,50.97
2018-11-25T14:11:22.855Z,50.47
2018-11-25T14:13:50.545Z,57.27
2018-11-25T14:16:20.408Z,49.00
2018-11-25T14:18:48.165Z,53.23
2018-11-25T14:21:16.034Z,53.63
2018-11-25T14:23:43.826Z,55.43
2018-11-25T14:26:21.551Z,53.37
2018-11-25T14:28:50.224Z,49.00
2018-11-25T14:31:17.957Z,56.17
2018-11-25T14:33:45.699Z,56.03
2018-11-25T14:36:13.633Z,56.63
2018-11-25T14:38:41.358Z,55.23
2018-11-25T14:41:09.096Z,55.53
2018-11-25T14:43:36.882Z,54.10
2018-11-25T14:46:04.741Z,53.27
2018-11-25T14:48:32.617Z,51.30
2018-11-25T14:51:00.321Z,49.63
2018-11-25T14:53:28.062Z,53.33
2018-11-25T14:55:55.806Z,55.27
2018-11-25T14:58:23.639Z,51.67
2018-11-25T15:00:51.371Z,50.10
2018-11-25T15:03:19.098Z,49.23
2018-11-25T15:05:47.811Z,46.27
2018-11-25T15:08:17.377Z,44.13
2018-11-25T15:10:45.126Z,43.60
2018-11-25T15:13:13.022Z,43.90
2018-11-25T15:15:40.831Z,43.53
2018-11-25T15:18:09.123Z,41.30
2018-11-25T15:20:36.946Z,43.30
2018-11-25T15:23:07.367Z,39.50
2018-11-25T15:25:36.955Z,40.50
2018-11-25T15:28:05.341Z,38.43
2018-11-25T15:30:33.895Z,41.27
2018-11-25T15:33:01.752Z,41.40
2018-11-25T15:35:29.664Z,38.90
2018-11-25T15:37:57.794Z,36.77
2018-11-25T15:40:28.845Z,40.50
2018-11-25T15:42:56.732Z,35.47
2018-11-25T15:45:24.515Z,40.87
2018-11-25T15:47:57.676Z,39.07
2018-11-25T15:50:26.944Z,36.27
2018-11-25T15:52:55.106Z,35.83
2018-11-25T15:55:22.979Z,35.30
2018-11-25T15:57:51.709Z,33.43
2018-11-25T16:00:19.762Z,37.00
2018-11-25T16:02:47.730Z,32.00
2018-11-25T16:05:20.885Z,37.57
2018-11-25T16:07:48.698Z,36.67
2018-11-25T16:10:17.242Z,37.83
2018-11-25T16:12:47.243Z,32.40
2018-11-25T16:15:16.260Z,33.03
2018-11-25T16:17:44.069Z,34.23
2018-11-25T16:20:15.825Z,31.73
2018-11-25T16:22:43.869Z,30.60
2018-11-25T16:25:18.851Z,35.77
2018-11-25T16:27:47.273Z,31.17
2018-11-25T16:30:15.073Z,30.93
2018-11-25T16:32:43.456Z,35.07
2018-11-25T16:35:11.447Z,34.33
2018-11-25T16:37:40.279Z,34.40
2018-11-25T16:40:12.931Z,31.63
2018-11-25T16:42:40.850Z,30.60
2018-11-25T16:45:16.020Z,29.77
2018-11-25T16:47:44.538Z,31.30
2018-11-25T16:50:14.437Z,32.60
2018-11-25T16:52:42.246Z,31.63
2018-11-25T16:55:10.980Z,32.90
2018-11-25T16:57:38.893Z,33.37
2018-11-25T17:00:09.832Z,35.53
2018-11-25T17:02:37.547Z,30.53
2018-11-25T17:05:10.219Z,32.90
2018-11-25T17:07:38.165Z,31.67
2018-11-25T17:10:08.391Z,31.33
2018-11-25T17:12:36.187Z,30.57
2018-11-25T17:15:05.591Z,28.27
2018-11-25T17:17:33.301Z,28.03
2018-11-25T17:20:01.026Z,31.10
2018-11-25T17:22:29.486Z,28.47
2018-11-25T17:24:57.253Z,27.20
2018-11-25T17:27:25.042Z,27.67
2018-11-25T17:29:52.887Z,27.30
2018-11-25T17:32:20.764Z,27.33
2018-11-25T17:34:48.580Z,29.03
2018-11-25T17:37:16.277Z,25.63
2018-11-25T17:39:43.997Z,29.07
2018-11-25T17:42:11.756Z,25.13
2018-11-25T17:44:39.512Z,27.17
2018-11-25T17:47:07.250Z,25.80
2018-11-25T17:49:35.754Z,25.13
2018-11-25T17:52:03.556Z,25.13
2018-11-25T17:54:31.365Z,24.73
2018-11-25T17:56:59.152Z,23.33
2018-11-25T17:59:26.971Z,23.93
2018-11-25T18:01:54.744Z,24.67
2018-11-25T18:04:22.466Z,25.10
2018-11-25T18:06:50.339Z,24.97
2018-11-25T18:09:18.111Z,24.87
2018-11-25T18:11:45.911Z,24.13
2018-11-25T18:14:13.631Z,26.97
2018-11-25T18:16:41.463Z,24.03
2018-11-25T18:19:27.477Z,25.47
2018-11-25T18:22:00.434Z,25.43
2018-11-25T18:24:28.254Z,22.57
2018-11-25T18:26:55.989Z,23.30
2018-11-25T18:29:23.766Z,24.83
2018-11-25T18:31:51.511Z,22.90
2018-11-25T18:34:19.287Z,22.67
2018-11-25T18:36:47.155Z,21.53
2018-11-25T18:39:14.884Z,20.37
2018-11-25T18:41:42.662Z,23.40
2018-11-25T18:44:10.396Z,23.20
2018-11-25T18:46:46.303Z,24.23
2018-11-25T18:49:08.713Z,26.43
2018-11-25T18:51:36.466Z,22.83
2018-11-25T18:54:04.906Z,27.70
2018-11-25T18:56:32.646Z,24.10
2018-11-25T18:59:00.391Z,24.47
2018-11-25T19:01:49.088Z,25.43
2018-11-25T19:04:16.921Z,22.87
2018-11-25T19:06:44.732Z,26.67
2018-11-25T19:09:12.431Z,25.80
2018-11-25T19:11:40.186Z,25.67
2018-11-25T19:14:07.926Z,26.03
2018-11-25T19:16:35.670Z,25.07
2018-11-25T19:19:03.450Z,29.70
2018-11-25T19:21:31.174Z,26.13
2018-11-25T19:23:58.866Z,28.77
2018-11-25T19:26:26.567Z,26.53
2018-11-25T19:28:54.321Z,25.63
2018-11-25T19:31:22.071Z,28.90
2018-11-25T19:33:49.866Z,26.67
2018-11-25T19:36:17.572Z,29.73
2018-11-25T19:38:45.335Z,28.83
2018-11-25T19:41:13.087Z,30.23
2018-11-25T19:43:40.773Z,27.67
2018-11-25T19:46:08.526Z,29.97
2018-11-25T19:48:36.330Z,33.03
2018-11-25T19:51:04.178Z,29.20
2018-11-25T19:53:31.899Z,26.30
2018-11-25T19:55:59.606Z,29.43
2018-11-25T19:58:27.343Z,29.37
2018-11-25T20:00:55.090Z,29.97
2018-11-25T20:03:22.865Z,30.73
2018-11-25T20:05:50.614Z,28.93
2018-11-25T20:08:18.395Z,33.03
2018-11-25T20:10:46.172Z,31.63
2018-11-25T20:13:13.923Z,30.70
2018-11-25T20:15:41.642Z,32.10
2018-11-25T20:18:09.711Z,29.80
2018-11-25T20:20:37.457Z,28.13
2018-11-25T20:23:06.015Z,35.40
2018-11-25T20:25:34.008Z,33.10
2018-11-25T20:28:01.739Z,33.47
2018-11-25T20:30:31.243Z,34.17
2018-11-25T20:33:04.908Z,34.43
2018-11-25T20:35:32.679Z,35.17
2018-11-25T20:40:06.781Z,37.87
2018-11-25T20:42:34.538Z,42.13
2018-11-25T20:45:02.308Z,37.83
2018-11-25T20:47:30.127Z,43.03
2018-11-25T20:49:57.939Z,45.57
2018-11-25T20:52:31.071Z,43.00
2018-11-25T20:54:58.836Z,44.70
2018-11-25T20:57:26.563Z,45.73
2018-11-25T20:59:54.274Z,45.53
2018-11-25T21:02:28.953Z,48.90
2018-11-25T21:04:49.795Z,50.73
2018-11-25T21:07:17.504Z,46.90
2018-11-25T21:09:45.270Z,54.43
2018-11-25T21:12:13.035Z,47.57
2018-11-25T21:14:40.883Z,48.80
2018-11-25T21:17:08.647Z,49.43
2018-11-25T21:19:36.454Z,50.87
2018-11-25T21:22:04.460Z,52.60
2018-11-25T21:24:32.407Z,48.97
2018-11-25T21:27:00.148Z,50.23
2018-11-25T21:29:27.830Z,48.90
2018-11-25T21:31:56.643Z,50.63
2018-11-25T21:34:24.438Z,51.67
2018-11-25T21:36:52.220Z,46.87
2018-11-25T21:39:20.076Z,44.73
2018-11-25T21:41:47.796Z,49.37
2018-11-25T21:44:15.510Z,49.17
2018-11-25T21:46:43.285Z,53.70
2018-11-25T21:49:11.091Z,49.77
2018-11-25T21:51:38.849Z,49.03
2018-11-25T21:54:06.635Z,50.63
2018-11-25T21:56:34.485Z,51.00
2018-11-25T21:59:02.213Z,50.27
2018-11-25T22:01:29.962Z,53.67
2018-11-25T22:03:57.670Z,53.03
2018-11-25T22:06:25.375Z,55.97
2018-11-25T22:08:53.142Z,50.87
2018-11-25T22:11:20.885Z,54.07
2018-11-25T22:13:48.581Z,54.93
2018-11-25T22:16:16.346Z,47.07
2018-11-25T22:18:44.091Z,54.70
2018-11-25T22:21:11.844Z,52.40
2018-11-25T22:23:39.564Z,50.70
2018-11-25T22:26:07.323Z,51.67
2018-11-25T22:28:35.026Z,53.80
2018-11-25T22:31:02.788Z,53.40
2018-11-25T22:33:30.543Z,54.17
2018-11-25T22:35:58.281Z,53.87
2018-11-25T22:38:25.988Z,55.70
2018-11-25T22:40:53.853Z,57.73
2018-11-25T22:43:21.608Z,49.80
2018-11-25T22:45:49.349Z,50.00
2018-11-25T22:48:17.117Z,57.27
2018-11-25T22:50:44.820Z,51.10
2018-11-25T22:53:12.593Z,51.87
2018-11-25T22:55:40.317Z,54.53
2018-11-25T22:58:08.147Z,52.43
2018-11-25T23:00:36.650Z,51.43
2018-11-25T23:03:04.483Z,53.00
2018-11-25T23:06:08.340Z,55.10
2018-11-25T23:08:36.085Z,53.23
2018-11-25T23:11:03.860Z,50.00
2018-11-25T23:13:31.587Z,46.70
2018-11-25T23:15:59.322Z,51.07
2018-11-25T23:18:27.109Z,51.43
2018-11-25T23:20:54.848Z,53.10
2018-11-25T23:23:22.636Z,52.50
2018-11-25T23:25:50.517Z,49.57
2018-11-25T23:28:18.245Z,56.23
2018-11-25T23:30:45.993Z,47.67
2018-11-25T23:33:13.768Z,49.40
2018-11-25T23:35:41.554Z,50.80
2018-11-25T23:38:09.345Z,53.17
2018-11-25T23:40:37.099Z,51.23
2018-11-25T23:43:05.102Z,51.73
2018-11-25T23:45:32.865Z,49.20
2018-11-25T23:48:00.672Z,50.00
2018-11-25T23:50:28.412Z,44.87
2018-11-25T23:52:56.177Z,53.53
2018-11-25T23:55:23.915Z,52.77
2018-11-25T23:57:51.732Z,50.47
